Time;durP1;ratioP1;P1;durP2;ratioP2;P2;SDS_P1;SDS_P2;PMS_P1;PMS_P2;Temp;Humidity;BMP_temperature;BMP_pressure;BME280_temperature;BME280_humidity;BME280_pressure;Samples;Min_cycle;Max_cycle;Signal;HPM_P1;HPM_P2
2024/01/21 00:01:14;;;;;;;7.32;4.70;;;1.40;66.50;;;;;;5085330;28;20040;-55
2024/01/21 00:03:41;;;;;;;7.72;5.35;;;1.50;66.40;;;;;;5103829;28;20088;-51
2024/01/21 00:06:11;;;;;;;8.32;5.25;;;1.40;66.30;;;;;;5109745;28;20085;-52
2024/01/21 00:08:40;;;;;;;8.85;5.93;;;1.50;66.20;;;;;;5110490;28;20044;-52
2024/01/21 00:11:07;;;;;;;7.97;4.88;;;1.50;66.10;;;;;;5101189;28;20044;-56
2024/01/21 00:13:34;;;;;;;8.10;4.80;;;1.50;66.10;;;;;;5092324;28;20069;-51
2024/01/21 00:16:01;;;;;;;6.35;5.25;;;1.60;66.10;;;;;;5106481;28;20129;-52
2024/01/21 00:18:33;;;;;;;9.00;5.13;;;1.60;66.10;;;;;;5104758;28;20053;-54
2024/01/21 00:21:06;;;;;;;8.80;4.90;;;1.60;65.80;;;;;;5099701;28;20066;-52
2024/01/21 00:23:33;;;;;;;8.70;5.20;;;1.60;65.70;;;;;;5109428;28;20044;-51
2024/01/21 00:26:05;;;;;;;8.80;4.88;;;1.60;65.70;;;;;;5106232;28;20063;-51
2024/01/21 00:28:33;;;;;;;11.90;5.67;;;1.60;65.70;;;;;;5099723;27;20044;-50
2024/01/21 00:31:03;;;;;;;8.02;5.07;;;1.60;65.60;;;;;;5088922;28;20406;-52
2024/01/21 00:33:30;;;;;;;6.40;4.88;;;1.60;65.40;;;;;;5099217;28;20048;-51
2024/01/21 00:35:57;;;;;;;6.05;4.70;;;1.60;65.50;;;;;;5107622;28;20118;-51
2024/01/21 00:38:26;;;;;;;8.07;5.38;;;1.60;65.40;;;;;;5108821;28;20093;-51
2024/01/21 00:40:53;;;;;;;8.57;5.60;;;1.60;65.40;;;;;;5100253;28;20120;-55
2024/01/21 00:43:20;;;;;;;9.15;5.03;;;1.60;65.30;;;;;;5082786;28;20047;-56
2024/01/21 00:45:49;;;;;;;8.20;5.40;;;1.60;65.30;;;;;;5096262;28;20110;-52
2024/01/21 00:48:16;;;;;;;10.73;5.38;;;1.60;65.30;;;;;;5100824;28;20143;-55
2024/01/21 00:50:45;;;;;;;7.95;4.85;;;1.60;65.30;;;;;;5097886;28;20036;-55
2024/01/21 00:53:17;;;;;;;11.65;5.35;;;1.60;65.20;;;;;;5090205;28;20046;-55
2024/01/21 00:55:46;;;;;;;8.70;4.82;;;1.60;65.20;;;;;;5107880;28;20499;-54
2024/01/21 00:58:15;;;;;;;9.20;5.38;;;1.60;65.20;;;;;;5106655;28;20101;-52
2024/01/21 01:00:42;;;;;;;9.70;5.88;;;1.70;65.20;;;;;;5095931;28;20079;-51
2024/01/21 01:03:11;;;;;;;4.97;4.47;;;1.50;65.00;;;;;;5092953;28;20073;-51
2024/01/21 01:05:40;;;;;;;7.22;5.10;;;1.60;64.90;;;;;;5107735;28;20124;-51
2024/01/21 01:08:09;;;;;;;8.18;4.70;;;1.60;64.80;;;;;;5104456;28;20051;-52
2024/01/21 01:10:36;;;;;;;8.90;4.80;;;1.60;64.90;;;;;;5103271;28;20109;-56
2024/01/21 01:13:05;;;;;;;9.07;5.15;;;1.50;64.90;;;;;;5091935;28;20051;-54
2024/01/21 01:15:32;;;;;;;8.73;5.32;;;1.60;65.00;;;;;;5107350;28;20084;-55
2024/01/21 01:18:07;;;;;;;9.23;5.57;;;1.60;65.10;;;;;;5097866;28;20035;-51
2024/01/21 01:20:33;;;;;;;9.43;5.68;;;1.60;65.00;;;;;;5091058;28;20035;-52
2024/01/21 01:23:03;;;;;;;7.60;5.32;;;1.60;65.00;;;;;;5102358;28;20059;-52
2024/01/21 01:25:31;;;;;;;9.68;5.13;;;1.60;65.00;;;;;;5106785;28;20039;-51
2024/01/21 01:28:06;;;;;;;7.88;5.00;;;1.60;65.20;;;;;;5088691;28;20416;-54
2024/01/21 01:30:32;;;;;;;7.22;4.65;;;1.60;65.20;;;;;;5097475;28;20064;-56
2024/01/21 01:32:59;;;;;;;9.75;6.63;;;1.60;65.10;;;;;;5085905;28;20140;-56
2024/01/21 01:35:27;;;;;;;8.95;4.30;;;1.60;65.10;;;;;;5106738;28;20105;-56
2024/01/21 01:37:57;;;;;;;7.45;4.78;;;1.60;65.10;;;;;;5103399;28;20071;-56
2024/01/21 01:40:30;;;;;;;9.23;5.38;;;1.70;65.40;;;;;;5085931;28;20035;-51
2024/01/21 01:43:02;;;;;;;9.52;4.93;;;1.70;65.30;;;;;;5095433;28;20032;-52
2024/01/21 01:45:30;;;;;;;7.82;5.18;;;1.80;65.50;;;;;;5090115;28;20085;-55
2024/01/21 01:47:58;;;;;;;7.25;5.18;;;1.70;65.50;;;;;;5103507;28;20485;-56
2024/01/21 01:50:27;;;;;;;8.85;4.70;;;1.80;65.50;;;;;;5101557;28;20047;-53
2024/01/21 01:52:57;;;;;;;7.57;4.93;;;1.80;65.40;;;;;;5088539;28;20062;-53
2024/01/21 01:55:24;;;;;;;9.65;4.82;;;1.80;65.50;;;;;;5102391;28;20450;-52
2024/01/21 01:57:51;;;;;;;6.93;4.75;;;1.80;65.40;;;;;;5096836;28;20040;-51
2024/01/21 02:00:18;;;;;;;8.82;5.05;;;1.80;65.20;;;;;;5102546;28;20046;-54
2024/01/21 02:02:44;;;;;;;6.45;4.13;;;1.80;65.20;;;;;;5088431;28;20040;-53
2024/01/21 02:05:13;;;;;;;7.03;4.80;;;1.80;65.10;;;;;;5095897;28;20055;-52
2024/01/21 02:07:43;;;;;;;13.10;5.18;;;1.80;64.90;;;;;;5104925;28;20102;-56
2024/01/21 02:10:16;;;;;;;5.57;4.80;;;1.80;65.00;;;;;;5093986;28;20077;-55
2024/01/21 02:12:51;;;;;;;7.32;4.57;;;1.80;64.90;;;;;;5093716;28;20123;-55
2024/01/21 02:15:18;;;;;;;8.15;5.07;;;1.80;64.80;;;;;;5102194;28;20498;-55
2024/01/21 02:17:46;;;;;;;6.15;5.25;;;1.80;64.80;;;;;;5104098;28;20036;-52
2024/01/21 02:20:16;;;;;;;6.97;4.85;;;1.70;64.80;;;;;;5090976;28;20401;-51
2024/01/21 02:22:47;;;;;;;;;;;1.70;64.70;;;;;;5102689;28;20039;-50
2024/01/21 02:25:21;;;;;;;8.68;4.22;;;1.70;64.40;;;;;;5103042;28;19943;-55
2024/01/21 02:27:50;;;;;;;7.63;4.57;;;1.70;64.70;;;;;;5094657;28;20455;-54
2024/01/21 02:30:17;;;;;;;6.75;4.57;;;1.60;64.60;;;;;;5089019;28;20516;-53
2024/01/21 02:32:46;;;;;;;8.30;5.20;;;1.60;64.60;;;;;;5089934;28;20063;-55
2024/01/21 02:35:13;;;;;;;10.05;4.88;;;1.60;64.60;;;;;;5102104;28;20072;-52
2024/01/21 02:37:43;;;;;;;7.20;4.65;;;1.50;64.60;;;;;;5103704;28;20101;-54
2024/01/21 02:40:13;;;;;;;9.15;4.70;;;1.50;64.70;;;;;;5092250;28;20043;-52
2024/01/21 02:42:40;;;;;;;5.40;4.07;;;1.50;64.70;;;;;;5100450;28;20464;-55
2024/01/21 02:45:12;;;;;;;8.05;4.10;;;1.40;64.80;;;;;;5098996;28;20063;-55
2024/01/21 02:47:41;;;;;;;7.00;4.63;;;1.40;64.80;;;;;;5107578;28;20374;-53
2024/01/21 02:50:10;;;;;;;7.00;3.97;;;1.40;64.80;;;;;;5097359;28;20119;-55
2024/01/21 02:52:37;;;;;;;7.90;4.85;;;1.40;64.80;;;;;;5091020;28;20041;-54
2024/01/21 02:55:09;;;;;;;8.30;4.60;;;1.30;65.40;;;;;;5101322;28;20059;-52
2024/01/21 02:57:39;;;;;;;6.82;3.88;;;1.30;64.80;;;;;;5106989;28;20636;-52
2024/01/21 03:00:08;;;;;;;7.80;4.32;;;1.30;64.90;;;;;;5097511;28;20036;-54
2024/01/21 03:02:39;;;;;;;6.68;4.72;;;1.20;65.00;;;;;;5091791;28;20036;-52
2024/01/21 03:05:06;;;;;;;6.50;3.67;;;1.20;65.00;;;;;;5103317;28;20401;-51
2024/01/21 03:07:33;;;;;;;6.22;4.05;;;1.20;65.20;;;;;;5096600;28;20039;-55
2024/01/21 03:10:02;;;;;;;8.23;4.05;;;1.20;65.20;;;;;;5091256;28;20044;-52
2024/01/21 03:12:35;;;;;;;6.45;4.03;;;1.20;65.30;;;;;;5093387;28;20519;-51
2024/01/21 03:15:05;;;;;;;6.55;4.10;;;1.20;65.50;;;;;;5103549;28;20046;-54
2024/01/21 03:17:34;;;;;;;7.10;4.10;;;1.20;65.40;;;;;;5098166;28;20037;-55
2024/01/21 03:20:05;;;;;;;7.05;3.33;;;1.40;65.60;;;;;;5101736;28;20049;-56
2024/01/21 03:22:33;;;;;;;6.05;3.42;;;1.30;65.60;;;;;;5100657;28;20052;-51
2024/01/21 03:25:00;;;;;;;6.70;4.32;;;1.30;65.60;;;;;;5098652;28;20097;-51
2024/01/21 03:27:27;;;;;;;6.80;3.58;;;1.30;65.50;;;;;;5094916;28;20036;-56
2024/01/21 03:29:56;;;;;;;6.45;3.28;;;1.40;65.40;;;;;;5102007;28;20042;-51
2024/01/21 03:32:26;;;;;;;6.47;3.78;;;1.40;65.30;;;;;;5088517;28;20048;-52
2024/01/21 03:34:55;;;;;;;5.73;2.70;;;1.40;65.00;;;;;;5101987;27;20050;-52
2024/01/21 03:37:24;;;;;;;7.22;3.30;;;1.50;64.90;;;;;;5103350;28;20755;-50
2024/01/21 03:39:52;;;;;;;10.13;4.10;;;1.50;65.00;;;;;;5103767;28;20044;-51
2024/01/21 03:42:19;;;;;;;5.05;3.47;;;1.50;65.00;;;;;;5085353;28;20119;-51
2024/01/21 03:44:48;;;;;;;8.07;3.88;;;1.50;64.80;;;;;;5099704;28;20118;-52
2024/01/21 03:47:19;;;;;;;6.72;3.90;;;1.60;64.70;;;;;;5101892;28;20067;-56
2024/01/21 03:49:48;;;;;;;5.15;3.42;;;1.60;64.60;;;;;;5100196;28;20101;-52
2024/01/21 03:52:15;;;;;;;5.75;3.63;;;1.60;64.60;;;;;;5098329;28;20052;-56
2024/01/21 03:54:42;;;;;;;11.23;5.22;;;1.60;64.40;;;;;;5100910;28;20059;-55
2024/01/21 03:57:11;;;;;;;5.20;3.78;;;1.70;64.40;;;;;;5097424;28;20093;-51
2024/01/21 03:59:39;;;;;;;6.95;3.67;;;1.70;64.40;;;;;;5095542;28;20104;-52
2024/01/21 04:02:08;;;;;;;5.00;3.40;;;1.80;64.30;;;;;;5085661;28;20047;-55
2024/01/21 04:04:34;;;;;;;5.80;3.22;;;1.70;64.30;;;;;;5101671;28;20035;-55
2024/01/21 04:07:04;;;;;;;7.85;4.22;;;1.80;64.40;;;;;;5101144;28;20035;-55
2024/01/21 04:09:35;;;;;;;6.93;4.10;;;1.80;64.40;;;;;;5102976;28;20416;-52
2024/01/21 04:12:02;;;;;;;4.75;3.55;;;1.80;64.40;;;;;;5094732;28;20047;-51
2024/01/21 04:14:28;;;;;;;4.90;3.53;;;1.80;64.30;;;;;;5102327;28;20132;-52
2024/01/21 04:17:02;;;;;;;6.13;3.22;;;1.90;64.30;;;;;;5101223;28;20405;-53
2024/01/21 04:19:29;;;;;;;5.20;3.58;;;1.90;64.20;;;;;;5099019;28;20115;-55
2024/01/21 04:22:01;;;;;;;4.93;3.30;;;1.90;64.20;;;;;;5099053;28;20039;-56
2024/01/21 04:24:31;;;;;;;5.78;3.35;;;1.90;64.00;;;;;;5101667;28;20086;-51
2024/01/21 04:27:03;;;;;;;5.78;3.92;;;2.00;63.90;;;;;;5095238;28;20050;-55
2024/01/21 04:29:33;;;;;;;4.50;3.13;;;2.00;63.90;;;;;;5095029;28;20040;-52
2024/01/21 04:32:02;;;;;;;6.05;3.58;;;2.00;63.90;;;;;;5086826;28;20052;-54
2024/01/21 04:34:29;;;;;;;4.97;3.95;;;2.10;63.90;;;;;;5099048;28;20040;-56
2024/01/21 04:37:01;;;;;;;4.72;3.15;;;2.10;64.50;;;;;;5099765;28;20042;-51
2024/01/21 04:39:30;;;;;;;6.32;3.53;;;2.10;63.80;;;;;;5094187;28;20393;-52
2024/01/21 04:42:06;;;;;;;4.25;3.17;;;2.10;63.60;;;;;;5098927;28;20039;-53
2024/01/21 04:44:33;;;;;;;4.95;3.28;;;2.10;63.40;;;;;;5096519;28;20109;-56
2024/01/21 04:47:09;;;;;;;7.13;3.72;;;2.20;63.70;;;;;;5097470;28;20051;-51
2024/01/21 04:49:38;;;;;;;5.50;3.63;;;2.10;63.70;;;;;;5100696;28;20038;-51
2024/01/21 04:52:05;;;;;;;5.93;3.50;;;2.20;63.80;;;;;;5092374;28;20044;-51
2024/01/21 04:54:39;;;;;;;4.25;3.22;;;2.20;63.80;;;;;;5096590;28;20078;-51
2024/01/21 04:57:11;;;;;;;5.82;3.70;;;2.20;63.30;;;;;;5093526;28;20480;-51
2024/01/21 04:59:38;;;;;;;4.78;3.15;;;2.20;63.60;;;;;;5092612;28;20044;-51
2024/01/21 05:02:07;;;;;;;4.72;3.35;;;2.20;63.50;;;;;;5086469;28;20036;-52
2024/01/21 05:04:38;;;;;;;6.20;3.58;;;2.20;63.50;;;;;;5098178;28;20046;-53
2024/01/21 05:07:05;;;;;;;5.88;3.28;;;2.20;63.40;;;;;;5097980;28;20551;-55
2024/01/21 05:09:31;;;;;;;5.95;3.63;;;2.20;63.40;;;;;;5099318;28;20127;-55
2024/01/21 05:11:58;;;;;;;7.28;4.00;;;2.20;63.40;;;;;;5091227;28;20542;-55
2024/01/21 05:14:25;;;;;;;4.80;3.08;;;2.20;63.40;;;;;;5097990;28;20067;-53
2024/01/21 05:16:54;;;;;;;5.32;3.67;;;2.20;63.40;;;;;;5099233;28;20111;-55
2024/01/21 05:19:21;;;;;;;5.50;3.20;;;2.20;63.20;;;;;;5089886;28;20125;-52
2024/01/21 05:21:48;;;;;;;5.32;3.58;;;2.20;63.40;;;;;;5093970;28;20040;-53
2024/01/21 05:24:14;;;;;;;6.20;3.90;;;2.10;63.50;;;;;;5097063;28;20044;-54
2024/01/21 05:26:46;;;;;;;4.47;3.40;;;2.30;63.60;;;;;;5094441;28;20028;-52
2024/01/21 05:29:13;;;;;;;6.13;4.15;;;2.10;63.40;;;;;;5092550;28;20085;-54
2024/01/21 05:31:40;;;;;;;6.93;4.22;;;2.10;63.40;;;;;;5088243;28;20046;-55
2024/01/21 05:34:09;;;;;;;6.47;3.53;;;2.20;63.60;;;;;;5091256;28;20032;-52
2024/01/21 05:36:36;;;;;;;5.18;3.75;;;2.10;63.40;;;;;;5098528;28;20043;-54
2024/01/21 05:39:03;;;;;;;5.75;3.95;;;2.10;63.60;;;;;;5096295;28;20762;-55
2024/01/21 05:41:30;;;;;;;6.15;3.70;;;2.10;63.60;;;;;;5088922;28;20044;-51
2024/01/21 05:43:57;;;;;;;8.32;3.97;;;2.20;63.60;;;;;;5091675;28;20031;-52
2024/01/21 05:46:27;;;;;;;4.95;3.35;;;2.20;63.60;;;;;;5093226;28;20452;-52
2024/01/21 05:48:54;;;;;;;6.78;4.47;;;2.20;63.50;;;;;;5097651;28;20525;-54
2024/01/21 05:51:22;;;;;;;4.43;3.40;;;2.20;63.60;;;;;;5095297;28;20040;-51
2024/01/21 05:53:49;;;;;;;4.97;3.63;;;2.30;63.60;;;;;;5087785;28;20088;-51
2024/01/21 05:56:19;;;;;;;4.63;3.50;;;2.30;63.80;;;;;;5110813;27;20126;-52
2024/01/21 05:58:46;;;;;;;4.88;3.20;;;2.30;63.90;;;;;;5095383;28;20047;-51
2024/01/21 06:01:12;;;;;;;5.55;3.70;;;2.30;64.10;;;;;;5085814;28;20052;-51
2024/01/21 06:03:39;;;;;;;7.70;3.25;;;2.30;64.30;;;;;;5093000;28;20036;-52
2024/01/21 06:06:12;;;;;;;6.13;3.80;;;2.30;64.20;;;;;;5089966;28;20425;-52
2024/01/21 06:08:40;;;;;;;6.05;3.78;;;2.40;64.30;;;;;;5090312;28;20612;-54
2024/01/21 06:11:07;;;;;;;6.10;3.42;;;2.40;64.40;;;;;;5094366;28;20075;-52
2024/01/21 06:13:33;;;;;;;5.45;3.53;;;2.40;64.30;;;;;;5095949;28;20044;-55
2024/01/21 06:16:01;;;;;;;5.32;3.70;;;2.40;64.40;;;;;;5099402;28;20047;-55
2024/01/21 06:18:29;;;;;;;5.55;3.80;;;2.40;64.40;;;;;;5095990;28;20046;-55
2024/01/21 06:20:58;;;;;;;6.45;4.10;;;2.50;64.40;;;;;;5095396;28;20062;-53
2024/01/21 06:23:25;;;;;;;4.68;3.13;;;2.50;64.40;;;;;;5098291;28;20044;-53
2024/01/21 06:25:54;;;;;;;7.10;3.90;;;2.50;64.40;;;;;;5094392;28;20040;-51
2024/01/21 06:28:25;;;;;;;7.45;4.13;;;2.50;64.40;;;;;;5095440;28;20549;-55
2024/01/21 06:30:51;;;;;;;7.30;4.28;;;2.50;64.10;;;;;;5093074;28;20115;-56
2024/01/21 06:33:20;;;;;;;6.60;3.50;;;2.50;64.20;;;;;;5089488;28;20048;-51
2024/01/21 06:35:47;;;;;;;6.60;4.50;;;2.60;64.30;;;;;;5099644;28;20051;-55
2024/01/21 06:38:16;;;;;;;6.50;4.10;;;2.60;64.40;;;;;;5113738;27;20127;-52
2024/01/21 06:40:43;;;;;;;5.32;3.92;;;2.50;64.50;;;;;;5097140;28;20394;-53
2024/01/21 06:43:16;;;;;;;6.03;3.65;;;2.60;64.60;;;;;;5092594;28;20055;-53
2024/01/21 06:45:48;;;;;;;8.20;4.15;;;2.60;64.50;;;;;;5099287;28;20113;-54
2024/01/21 06:48:20;;;;;;;6.13;3.60;;;2.50;64.40;;;;;;5097096;28;20040;-53
2024/01/21 06:50:51;;;;;;;7.47;4.57;;;2.60;64.40;;;;;;5097546;28;20523;-53
2024/01/21 06:53:17;;;;;;;6.35;3.90;;;2.60;64.10;;;;;;5088385;28;20044;-56
2024/01/21 06:55:44;;;;;;;6.45;4.15;;;2.60;63.90;;;;;;5090137;28;20052;-51
2024/01/21 06:58:11;;;;;;;7.13;4.70;;;2.60;64.00;;;;;;5095699;28;20044;-56
2024/01/21 07:00:39;;;;;;;6.57;4.50;;;2.60;63.80;;;;;;5091210;28;20097;-51
2024/01/21 07:03:07;;;;;;;7.30;5.70;;;2.60;63.60;;;;;;5093105;28;20533;-51
2024/01/21 07:05:34;;;;;;;7.65;5.03;;;2.70;63.60;;;;;;5095578;28;20054;-55
2024/01/21 07:08:05;;;;;;;8.60;5.45;;;2.70;63.50;;;;;;5095465;28;20122;-53
2024/01/21 07:10:35;;;;;;;5.88;4.32;;;2.80;63.10;;;;;;5089588;28;20043;-55
2024/01/21 07:13:03;;;;;;;9.38;5.15;;;2.90;63.20;;;;;;5095386;28;20044;-56
2024/01/21 07:15:32;;;;;;;8.80;5.60;;;3.00;62.80;;;;;;5094700;28;20068;-55
2024/01/21 07:18:01;;;;;;;10.05;5.95;;;3.10;62.80;;;;;;5094279;28;20047;-56
2024/01/21 07:20:35;;;;;;;8.57;5.53;;;3.20;62.60;;;;;;5090510;28;20097;-55
2024/01/21 07:23:02;;;;;;;9.82;5.63;;;3.40;62.30;;;;;;5094004;28;20096;-56
2024/01/21 07:25:36;;;;;;;9.25;6.05;;;3.40;62.20;;;;;;5093522;28;20113;-52
2024/01/21 07:28:03;;;;;;;10.27;5.68;;;3.60;61.90;;;;;;5091929;28;20470;-51
2024/01/21 07:30:43;;;;;;;8.95;4.95;;;3.70;61.50;;;;;;5087005;28;20157;-56
2024/01/21 07:33:13;;;;;;;7.95;5.43;;;3.70;61.20;;;;;;5092985;28;20063;-56
2024/01/21 07:35:40;;;;;;;7.78;5.22;;;3.80;60.90;;;;;;5089940;28;20127;-55
2024/01/21 07:38:09;;;;;;;7.07;4.60;;;3.90;60.60;;;;;;5093422;28;20055;-52
2024/01/21 07:40:36;;;;;;;7.82;4.75;;;4.10;60.30;;;;;;5093481;28;20113;-54
2024/01/21 07:43:09;;;;;;;8.77;5.15;;;4.10;60.10;;;;;;5087810;28;20036;-53
2024/01/21 07:45:36;;;;;;;7.10;4.75;;;4.20;60.10;;;;;;5082215;28;20127;-54
2024/01/21 07:48:04;;;;;;;6.50;4.30;;;4.30;60.00;;;;;;5078421;28;20097;-52
2024/01/21 07:50:30;;;;;;;7.55;5.05;;;4.40;59.80;;;;;;5082169;28;20062;-52
2024/01/21 07:52:57;;;;;;;6.43;4.47;;;4.40;59.50;;;;;;5085646;28;20134;-51
2024/01/21 07:55:24;;;;;;;7.35;4.78;;;4.50;59.30;;;;;;5085895;28;20599;-56
2024/01/21 07:57:50;;;;;;;6.25;4.13;;;4.60;59.30;;;;;;5083775;28;20548;-53
2024/01/21 08:00:17;;;;;;;7.40;5.22;;;4.60;58.90;;;;;;5085753;28;20043;-57
2024/01/21 08:02:44;;;;;;;6.78;4.45;;;4.70;58.90;;;;;;5087660;28;20044;-51
2024/01/21 08:05:11;;;;;;;5.57;4.15;;;4.70;58.70;;;;;;5089884;28;20069;-54
2024/01/21 08:07:38;;;;;;;4.78;4.22;;;4.80;58.70;;;;;;5091893;28;20044;-54
2024/01/21 08:10:05;;;;;;;7.07;4.75;;;4.80;58.40;;;;;;5092501;28;20119;-56
2024/01/21 08:12:32;;;;;;;6.47;4.45;;;4.90;58.40;;;;;;5077763;28;20090;-54
2024/01/21 08:14:58;;;;;;;5.90;4.40;;;4.90;58.40;;;;;;5090192;28;20382;-55
2024/01/21 08:17:25;;;;;;;6.32;4.30;;;4.90;57.90;;;;;;5089180;28;20078;-54
2024/01/21 08:19:54;;;;;;;5.32;4.15;;;5.00;57.80;;;;;;5089112;28;20036;-55
2024/01/21 08:22:21;;;;;;;7.05;4.63;;;5.00;57.40;;;;;;5080170;28;20498;-51
2024/01/21 08:24:53;;;;;;;6.63;4.10;;;5.10;57.60;;;;;;5089847;28;20040;-54
2024/01/21 08:27:20;;;;;;;;;;;5.10;57.50;;;;;;5091603;28;20036;-55
2024/01/21 08:29:47;;;;;;;13.05;7.78;;;5.20;56.80;;;;;;5090638;28;19927;-55
2024/01/21 08:32:13;;;;;;;7.78;6.70;;;5.20;57.30;;;;;;5086173;28;20050;-54
2024/01/21 08:34:42;;;;;;;8.20;5.90;;;5.30;57.20;;;;;;5091058;28;20051;-52
2024/01/21 08:37:09;;;;;;;6.10;5.03;;;5.30;57.00;;;;;;5084071;28;20043;-54
2024/01/21 08:39:36;;;;;;;6.93;4.68;;;5.30;56.80;;;;;;5091907;28;20060;-56
2024/01/21 08:42:06;;;;;;;7.72;5.07;;;5.30;56.50;;;;;;5087524;28;20047;-51
2024/01/21 08:44:33;;;;;;;5.85;4.55;;;5.30;56.40;;;;;;5086880;28;20118;-56
2024/01/21 08:47:00;;;;;;;5.10;4.22;;;5.30;56.30;;;;;;5090042;28;20036;-52
2024/01/21 08:49:26;;;;;;;7.88;5.13;;;5.30;56.20;;;;;;5088303;28;20115;-52
2024/01/21 08:51:53;;;;;;;4.65;3.92;;;5.40;56.20;;;;;;5088893;28;20036;-55
2024/01/21 08:54:21;;;;;;;5.30;3.95;;;5.30;55.90;;;;;;5092602;28;20518;-55
2024/01/21 08:56:49;;;;;;;5.05;4.07;;;5.30;55.90;;;;;;5091671;28;20031;-53
2024/01/21 08:59:16;;;;;;;6.13;4.68;;;5.40;56.10;;;;;;5091100;28;20040;-56
2024/01/21 09:01:43;;;;;;;6.35;3.95;;;5.40;56.40;;;;;;5083653;28;20083;-55
2024/01/21 09:04:10;;;;;;;5.65;4.00;;;5.50;56.60;;;;;;5090943;28;20036;-56
2024/01/21 09:06:41;;;;;;;5.90;4.07;;;5.50;56.40;;;;;;5091758;28;20039;-55
2024/01/21 09:09:11;;;;;;;5.45;4.22;;;5.60;56.50;;;;;;5084466;28;20035;-54
2024/01/21 09:11:39;;;;;;;6.80;4.32;;;5.70;56.40;;;;;;5089170;28;20036;-56
2024/01/21 09:14:06;;;;;;;6.07;4.03;;;5.80;56.40;;;;;;5092082;28;20036;-54
2024/01/21 09:16:33;;;;;;;6.22;4.53;;;5.90;56.20;;;;;;5090970;28;20046;-56
2024/01/21 09:19:00;;;;;;;12.27;9.20;;;6.00;56.20;;;;;;5088498;28;20144;-54
2024/01/21 09:21:28;;;;;;;5.47;4.97;;;6.00;56.10;;;;;;5080203;28;20458;-56
2024/01/21 09:24:03;;;;;;;23.05;17.75;;;6.10;56.10;;;;;;5092849;28;20101;-53
2024/01/21 09:26:31;;;;;;;15.18;13.35;;;6.20;56.30;;;;;;5091666;28;20600;-56
2024/01/21 09:28:57;;;;;;;13.55;12.15;;;6.20;56.30;;;;;;5085877;28;20048;-56
2024/01/21 09:31:24;;;;;;;9.80;8.93;;;6.30;56.30;;;;;;5089109;28;20127;-55
2024/01/21 09:33:51;;;;;;;10.07;8.30;;;6.30;56.20;;;;;;5090400;28;20472;-53
2024/01/21 09:36:19;;;;;;;8.63;7.70;;;6.40;56.50;;;;;;5092063;28;20039;-56
2024/01/21 09:38:46;;;;;;;7.18;5.95;;;6.50;56.50;;;;;;5091660;28;20442;-54
2024/01/21 09:41:51;;;;;;;7.72;5.93;;;6.60;56.70;;;;;;5086425;28;20040;-51
2024/01/21 09:44:19;;;;;;;8.40;5.50;;;6.70;55.80;;;;;;5085654;28;20494;-52
2024/01/21 09:46:55;;;;;;;7.72;5.55;;;6.80;56.90;;;;;;5090915;28;20121;-55
2024/01/21 09:49:22;;;;;;;7.55;5.57;;;6.80;56.30;;;;;;5081376;28;20040;-51
2024/01/21 09:51:49;;;;;;;6.25;5.10;;;6.80;56.80;;;;;;5087859;28;20122;-55
2024/01/21 09:54:18;;;;;;;6.82;4.47;;;6.80;56.60;;;;;;5091328;28;20045;-53
2024/01/21 09:56:45;;;;;;;5.57;3.85;;;6.90;56.90;;;;;;5091772;28;20040;-56
2024/01/21 09:59:13;;;;;;;5.15;4.10;;;6.90;57.00;;;;;;5090159;28;20071;-52
2024/01/21 10:01:40;;;;;;;6.20;4.63;;;7.00;57.10;;;;;;5087836;28;20494;-55
2024/01/21 10:04:11;;;;;;;5.78;4.70;;;7.00;57.20;;;;;;5088960;28;20549;-54
2024/01/21 10:06:39;;;;;;;5.10;4.57;;;7.00;57.10;;;;;;5080015;28;20513;-56
2024/01/21 10:09:17;;;;;;;6.18;5.00;;;7.00;57.40;;;;;;5088135;28;20037;-53
2024/01/21 10:11:54;;;;;;;6.75;5.05;;;7.00;57.20;;;;;;5090250;28;20102;-56
2024/01/21 10:14:21;;;;;;;6.97;5.13;;;7.00;57.40;;;;;;5085441;28;20536;-55
2024/01/21 10:16:49;;;;;;;6.78;4.88;;;7.00;57.80;;;;;;5083019;28;20438;-56
2024/01/21 10:19:31;;;;;;;6.20;4.93;;;7.00;57.90;;;;;;5091179;28;20467;-52
2024/01/21 10:22:13;;;;;;;5.95;4.72;;;7.00;57.70;;;;;;5089271;28;20524;-52
2024/01/21 10:24:41;;;;;;;9.10;5.55;;;7.00;57.90;;;;;;5090247;28;20066;-52
2024/01/21 10:27:09;;;;;;;9.63;5.45;;;7.10;58.40;;;;;;5089648;28;20038;-54
2024/01/21 10:29:46;;;;;;;7.15;5.35;;;7.10;58.40;;;;;;5087580;28;20115;-54
2024/01/21 10:32:14;;;;;;;8.23;5.10;;;7.10;58.90;;;;;;5083326;28;20075;-56
2024/01/21 10:34:49;;;;;;;6.00;5.03;;;7.10;58.70;;;;;;5090151;28;20127;-54
2024/01/21 10:37:17;;;;;;;6.30;4.70;;;7.10;58.70;;;;;;5082949;28;20040;-55
2024/01/21 10:39:45;;;;;;;6.05;5.00;;;7.10;58.80;;;;;;5088847;28;20052;-56
2024/01/21 10:42:17;;;;;;;7.40;5.25;;;7.10;58.90;;;;;;5085274;28;20520;-53
2024/01/21 10:44:45;;;;;;;6.68;5.07;;;7.20;59.10;;;;;;5090439;28;20101;-56
2024/01/21 10:47:15;;;;;;;6.22;4.68;;;7.10;59.10;;;;;;5089789;28;20507;-56
2024/01/21 10:49:42;;;;;;;6.88;5.00;;;7.20;59.40;;;;;;5087727;28;20039;-52
2024/01/21 10:52:11;;;;;;;6.80;5.20;;;7.20;59.50;;;;;;5083391;28;20043;-55
2024/01/21 10:54:42;;;;;;;7.78;5.13;;;7.20;59.70;;;;;;5085808;28;20044;-56
2024/01/21 10:57:09;;;;;;;7.85;5.13;;;7.20;59.80;;;;;;5088719;28;20048;-57
2024/01/21 10:59:38;;;;;;;6.63;5.50;;;7.30;60.10;;;;;;5088851;28;20064;-55
2024/01/21 11:02:07;;;;;;;7.60;5.18;;;7.30;60.10;;;;;;5088757;28;20040;-54
2024/01/21 11:04:34;;;;;;;6.78;5.40;;;7.40;60.40;;;;;;5089388;28;20490;-56
2024/01/21 11:07:05;;;;;;;6.15;4.93;;;7.40;60.40;;;;;;5091124;28;20111;-56
2024/01/21 11:09:35;;;;;;;6.05;5.15;;;7.50;60.50;;;;;;5092401;28;20036;-56
2024/01/21 11:12:03;;;;;;;7.70;5.20;;;7.50;60.50;;;;;;5080348;28;20061;-56
2024/01/21 11:14:30;;;;;;;5.97;4.55;;;7.50;60.70;;;;;;5093095;28;20692;-57
2024/01/21 11:16:59;;;;;;;6.65;4.97;;;7.60;60.90;;;;;;5090621;28;20051;-56
2024/01/21 11:19:36;;;;;;;8.70;6.10;;;7.60;60.90;;;;;;5092104;28;20093;-57
2024/01/21 11:22:11;;;;;;;9.77;6.15;;;7.60;60.90;;;;;;5083247;28;20043;-57
2024/01/21 11:24:41;;;;;;;6.78;5.40;;;7.60;61.00;;;;;;5091679;28;20046;-57
2024/01/21 11:27:17;;;;;;;6.90;5.55;;;7.60;61.70;;;;;;5089137;28;20517;-57
2024/01/21 11:29:44;;;;;;;6.68;5.30;;;7.70;60.80;;;;;;5099155;28;20101;-57
2024/01/21 11:32:11;;;;;;;8.43;4.97;;;7.70;61.00;;;;;;5092987;28;20090;-57
2024/01/21 11:34:42;;;;;;;8.65;5.65;;;7.70;61.10;;;;;;5102388;28;20058;-56
2024/01/21 11:37:12;;;;;;;5.22;4.60;;;7.70;61.10;;;;;;5096118;28;20046;-56
2024/01/21 11:39:39;;;;;;;5.63;4.90;;;7.80;61.10;;;;;;5104172;28;20563;-57
2024/01/21 11:42:06;;;;;;;6.32;5.20;;;7.80;61.20;;;;;;5095011;28;20038;-55
2024/01/21 11:44:34;;;;;;;5.07;4.57;;;7.80;61.10;;;;;;5112667;28;20451;-57
2024/01/21 11:47:03;;;;;;;6.53;4.85;;;7.80;61.20;;;;;;5098596;28;20043;-57
2024/01/21 11:49:34;;;;;;;6.28;5.03;;;7.90;61.30;;;;;;5092971;28;20040;-57
2024/01/21 11:52:06;;;;;;;5.47;4.63;;;7.90;61.20;;;;;;5102856;28;20039;-57
2024/01/21 11:54:36;;;;;;;6.40;4.88;;;8.00;61.30;;;;;;5111661;28;20058;-57
2024/01/21 11:57:04;;;;;;;5.10;4.43;;;8.00;61.20;;;;;;5096862;28;20063;-57
2024/01/21 11:59:31;;;;;;;7.00;5.45;;;8.00;61.30;;;;;;5101768;28;20439;-56
2024/01/21 12:01:58;;;;;;;6.03;4.88;;;8.10;61.40;;;;;;5094069;28;20050;-57
2024/01/21 12:04:28;;;;;;;7.68;5.60;;;8.10;61.40;;;;;;5109086;28;20084;-55
2024/01/21 12:06:55;;;;;;;7.97;5.38;;;8.20;61.50;;;;;;5103230;28;20035;-56
2024/01/21 12:09:23;;;;;;;5.65;4.80;;;8.30;61.60;;;;;;5111648;28;20043;-57
2024/01/21 12:11:51;;;;;;;6.93;4.75;;;8.30;61.60;;;;;;5092969;28;20109;-57
2024/01/21 12:14:21;;;;;;;5.22;4.72;;;8.30;61.60;;;;;;5104275;28;20067;-56
2024/01/21 12:16:53;;;;;;;6.60;4.40;;;8.30;61.60;;;;;;5098196;28;20046;-57
2024/01/21 12:19:22;;;;;;;7.22;5.22;;;8.30;61.70;;;;;;5094700;28;20051;-56
2024/01/21 12:21:50;;;;;;;5.38;4.32;;;8.40;61.90;;;;;;5098505;28;20048;-56
2024/01/21 12:24:22;;;;;;;5.40;4.78;;;8.40;62.00;;;;;;5111254;28;20039;-57
2024/01/21 12:26:49;;;;;;;5.30;3.95;;;8.50;62.10;;;;;;5093936;28;20036;-55
2024/01/21 12:29:19;;;;;;;5.80;4.55;;;8.50;62.20;;;;;;5106812;28;20048;-55
2024/01/21 12:31:51;;;;;;;4.93;4.38;;;8.60;62.10;;;;;;5090483;28;20043;-56
2024/01/21 12:34:19;;;;;;;6.10;4.38;;;8.60;62.20;;;;;;5099849;28;20047;-57
2024/01/21 12:36:49;;;;;;;6.38;4.82;;;8.60;62.20;;;;;;5104348;28;20476;-56
2024/01/21 12:39:16;;;;;;;7.47;5.03;;;8.70;62.20;;;;;;5110532;28;20044;-56
2024/01/21 12:41:43;;;;;;;8.38;4.95;;;8.70;62.10;;;;;;5092177;28;20040;-56
2024/01/21 12:44:10;;;;;;;7.28;4.75;;;8.80;62.10;;;;;;5106936;28;20114;-56
2024/01/21 12:46:38;;;;;;;4.90;4.25;;;8.80;62.00;;;;;;5104719;28;20047;-56
2024/01/21 12:49:05;;;;;;;6.78;5.60;;;8.80;62.00;;;;;;5097610;28;20044;-56
2024/01/21 12:51:32;;;;;;;5.50;4.45;;;8.80;62.00;;;;;;5098048;28;20046;-55
2024/01/21 12:53:59;;;;;;;7.53;4.78;;;8.80;62.10;;;;;;5109342;28;20130;-57
2024/01/21 12:56:27;;;;;;;7.60;4.47;;;8.80;62.00;;;;;;5106411;28;20501;-56
2024/01/21 12:58:56;;;;;;;5.70;4.50;;;8.80;62.00;;;;;;5097936;28;20040;-52
2024/01/21 13:01:23;;;;;;;6.57;4.88;;;8.80;61.90;;;;;;5081836;28;20498;-56
2024/01/21 13:03:52;;;;;;;6.13;5.07;;;8.80;61.90;;;;;;5100111;28;20047;-54
2024/01/21 13:06:20;;;;;;;6.20;4.80;;;8.80;61.90;;;;;;5105522;28;20048;-56